LDVC weather

Čakovec Pribisla Airport
Čakovec, Međimurje County, Croatia

Public forecast

Using degrees Celsius for public forecast. Weather courtesy of forecast.io.

METAR (pilot weather report)

Closest report is Sármellék International Airport, 32.4 nm (60.1 km) ENE. Retrieved 2019/05/19 16:15 UTC (0 seconds ago):

LHSM 191615Z AUTO 18005KT 150V210 9999 FEW042TCU BKN200 20/13 Q1004 TEMPO -SHRA SCT033CB BKN040

TAF (pilot weather forecast)

Closest forecast is Maribor Airport, 34.1 nm (63.2 km) W. Retrieved 2019/05/19 15:03 UTC (1 hour ago):

TAF LJMB 191400Z 1915/2015 16005KT 9999 FEW010 SCT050 TEMPO 1915/2015 VRB10KT 7000 SHRA FEW010 BKN035TCU OVC050 BECMG 2008/2011 18010KT TEMPO 2011/2015 20015KT